HAZ3331 ZGHA-ZSHC
Flight info
| Callsign | HAZ3331 |
|---|---|
| Flight time | 1h 0m |
| Altitude | 29100 |
| Route | GUD7X GUDRO W56 IDPOG A581 WHA R343 UPLEL W95 SAPIN A470 IGRAT IGRAT81 |
| Aircraft | A20N/M-SDE2E3FGHIRWXY/LB1 |
Departure
| Time | 2026-04-23 14:00 |
|---|---|
| Airport | Changsha Huanghua International Airport (ZGHA) |
Arrival
| Time | 2026-04-23 15:00 |
|---|---|
| Airport | Hangzhou Xiaoshan International Airport (ZSHC) |
| Time | Latitude | Longitude | Altitude | Speed | Heading |
|---|---|---|---|---|---|
| 2026-04-23 13:44 | 28.18817 | 113.21554 | 227 ft | 0 kts | 186° |
| 2026-04-23 13:52 | 28.18826 | 113.21555 | 227 ft | 2 kts | 186° |
| 2026-04-23 13:52 | 28.18840 | 113.21557 | 227 ft | 2 kts | 186° |
| 2026-04-23 13:53 | 28.18856 | 113.21559 | 227 ft | 2 kts | 189° |
| 2026-04-23 13:53 | 28.18869 | 113.21567 | 227 ft | 2 kts | 229° |
| 2026-04-23 13:53 | 28.18876 | 113.21582 | 227 ft | 2 kts | 260° |
| 2026-04-23 13:53 | 28.18876 | 113.21599 | 227 ft | 2 kts | 268° |
| 2026-04-23 13:54 | 28.18877 | 113.21616 | 227 ft | 2 kts | 266° |
| 2026-04-23 13:54 | 28.18878 | 113.21629 | 227 ft | 0 kts | 267° |
| 2026-04-23 13:54 | 28.18879 | 113.21644 | 227 ft | 2 kts | 249° |
| 2026-04-23 13:54 | 28.18887 | 113.21659 | 227 ft | 2 kts | 230° |
| 2026-04-23 13:55 | 28.18898 | 113.21671 | 227 ft | 2 kts | 210° |
| 2026-04-23 13:55 | 28.18912 | 113.21677 | 227 ft | 2 kts | 190° |
| 2026-04-23 13:55 | 28.18921 | 113.21678 | 227 ft | 0 kts | 178° |
| 2026-04-23 13:55 | 28.18927 | 113.21677 | 227 ft | 0 kts | 176° |
| 2026-04-23 13:57 | 28.18914 | 113.21679 | 227 ft | 3 kts | 169° |
| 2026-04-23 13:57 | 28.18884 | 113.21713 | 227 ft | 9 kts | 102° |
| 2026-04-23 13:57 | 28.18873 | 113.21780 | 227 ft | 8 kts | 134° |
| 2026-04-23 13:57 | 28.18814 | 113.21795 | 227 ft | 11 kts | 176° |
| 2026-04-23 13:58 | 28.18708 | 113.21801 | 227 ft | 19 kts | 176° |
| 2026-04-23 13:58 | 28.18571 | 113.21810 | 227 ft | 19 kts | 176° |
| 2026-04-23 13:58 | 28.18431 | 113.21819 | 227 ft | 20 kts | 177° |
| 2026-04-23 13:58 | 28.18271 | 113.21829 | 227 ft | 23 kts | 176° |
| 2026-04-23 13:59 | 28.18110 | 113.21843 | 227 ft | 22 kts | 156° |
| 2026-04-23 13:59 | 28.18103 | 113.21998 | 227 ft | 20 kts | 62° |
| 2026-04-23 13:59 | 28.18257 | 113.22014 | 227 ft | 44 kts | 359° |
| 2026-04-23 13:59 | 28.18846 | 113.21982 | 228 ft | 120 kts | 356° |
| 2026-04-23 14:00 | 28.19493 | 113.21941 | 231 ft | 160 kts | 356° |
| 2026-04-23 14:00 | 28.21009 | 113.21853 | 1124 ft | 164 kts | 358° |
| 2026-04-23 14:00 | 28.22108 | 113.21812 | 2023 ft | 158 kts | 358° |
| 2026-04-23 14:00 | 28.23218 | 113.21751 | 2582 ft | 169 kts | 357° |
| 2026-04-23 14:01 | 28.24452 | 113.21670 | 3083 ft | 186 kts | 357° |
| 2026-04-23 14:01 | 28.25808 | 113.21582 | 3603 ft | 203 kts | 357° |
| 2026-04-23 14:01 | 28.27266 | 113.21527 | 4186 ft | 218 kts | 6° |
| 2026-04-23 14:01 | 28.28642 | 113.22200 | 5095 ft | 221 kts | 41° |
| 2026-04-23 14:02 | 28.29546 | 113.23543 | 6184 ft | 218 kts | 53° |
| 2026-04-23 14:02 | 28.30134 | 113.25120 | 6990 ft | 230 kts | 79° |
| 2026-04-23 14:02 | 28.29918 | 113.26936 | 7850 ft | 243 kts | 110° |
| 2026-04-23 14:02 | 28.28879 | 113.28474 | 8662 ft | 254 kts | 137° |
| 2026-04-23 14:03 | 28.27450 | 113.29677 | 9427 ft | 261 kts | 144° |
| 2026-04-23 14:03 | 28.25945 | 113.30810 | 10188 ft | 267 kts | 143° |
| 2026-04-23 14:03 | 28.24616 | 113.32268 | 10992 ft | 268 kts | 121° |
| 2026-04-23 14:03 | 28.23661 | 113.34086 | 11772 ft | 272 kts | 115° |
| 2026-04-23 14:04 | 28.22767 | 113.36000 | 12478 ft | 280 kts | 116° |
| 2026-04-23 14:04 | 28.21820 | 113.37959 | 13193 ft | 287 kts | 118° |
| 2026-04-23 14:04 | 28.20822 | 113.39919 | 13933 ft | 293 kts | 120° |
| 2026-04-23 14:04 | 28.19779 | 113.41889 | 14669 ft | 297 kts | 121° |
| 2026-04-23 14:05 | 28.18688 | 113.43906 | 15425 ft | 301 kts | 121° |
| 2026-04-23 14:05 | 28.17579 | 113.45937 | 16168 ft | 305 kts | 122° |
| 2026-04-23 14:05 | 28.16462 | 113.47972 | 16883 ft | 309 kts | 123° |
| 2026-04-23 14:05 | 28.15317 | 113.50053 | 17609 ft | 313 kts | 123° |
| 2026-04-23 14:06 | 28.14166 | 113.52143 | 18299 ft | 317 kts | 123° |
| 2026-04-23 14:06 | 28.11748 | 113.56536 | 19673 ft | 325 kts | 124° |
| 2026-04-23 14:06 | 28.10549 | 113.58712 | 20324 ft | 329 kts | 125° |
| 2026-04-23 14:07 | 28.09322 | 113.60922 | 20957 ft | 333 kts | 126° |
| 2026-04-23 14:07 | 28.06828 | 113.65418 | 22156 ft | 343 kts | 127° |
| 2026-04-23 14:07 | 28.05551 | 113.67734 | 22495 ft | 357 kts | 126° |
| 2026-04-23 14:08 | 28.04472 | 113.70344 | 22736 ft | 379 kts | 105° |
| 2026-04-23 14:08 | 28.04312 | 113.73376 | 23030 ft | 394 kts | 82° |
| 2026-04-23 14:08 | 28.04713 | 113.76485 | 23308 ft | 408 kts | 79° |
| 2026-04-23 14:08 | 28.05190 | 113.79672 | 23547 ft | 422 kts | 79° |
| 2026-04-23 14:09 | 28.05675 | 113.83017 | 23791 ft | 437 kts | 80° |
| 2026-04-23 14:09 | 28.06144 | 113.86481 | 24043 ft | 450 kts | 81° |
| 2026-04-23 14:09 | 28.06598 | 113.90014 | 24253 ft | 463 kts | 82° |
| 2026-04-23 14:09 | 28.07046 | 113.93644 | 24501 ft | 475 kts | 82° |
| 2026-04-23 14:10 | 28.07506 | 113.97411 | 24728 ft | 487 kts | 82° |
| 2026-04-23 14:10 | 28.07972 | 114.01244 | 24936 ft | 499 kts | 82° |
| 2026-04-23 14:10 | 28.08446 | 114.05156 | 25146 ft | 509 kts | 82° |
| 2026-04-23 14:10 | 28.08931 | 114.09185 | 25402 ft | 518 kts | 82° |
| 2026-04-23 14:11 | 28.09413 | 114.13197 | 25861 ft | 521 kts | 82° |
| 2026-04-23 14:11 | 28.09902 | 114.17284 | 26393 ft | 522 kts | 82° |
| 2026-04-23 14:11 | 28.10385 | 114.21328 | 26896 ft | 523 kts | 82° |
| 2026-04-23 14:11 | 28.10871 | 114.25423 | 27375 ft | 525 kts | 83° |
| 2026-04-23 14:12 | 28.11359 | 114.29527 | 27786 ft | 529 kts | 83° |
| 2026-04-23 14:12 | 28.11935 | 114.33606 | 28119 ft | 534 kts | 79° |
| 2026-04-23 14:12 | 28.12753 | 114.37728 | 28447 ft | 538 kts | 75° |
| 2026-04-23 14:12 | 28.13757 | 114.41831 | 28846 ft | 541 kts | 73° |
| 2026-04-23 14:13 | 28.14800 | 114.45889 | 29081 ft | 545 kts | 72° |
| 2026-04-23 14:13 | 28.15871 | 114.50023 | 29116 ft | 548 kts | 72° |
| 2026-04-23 14:13 | 28.17986 | 114.58295 | 29139 ft | 547 kts | 73° |
| 2026-04-23 14:14 | 28.20072 | 114.66589 | 29118 ft | 548 kts | 73° |
| 2026-04-23 14:14 | 28.22133 | 114.74861 | 29123 ft | 548 kts | 74° |
| 2026-04-23 14:15 | 28.24193 | 114.83150 | 29120 ft | 548 kts | 74° |
| 2026-04-23 14:15 | 28.26263 | 114.91491 | 29139 ft | 549 kts | 73° |
| 2026-04-23 14:16 | 28.28313 | 114.99760 | 29133 ft | 548 kts | 73° |
| 2026-04-23 14:16 | 28.30377 | 115.08103 | 29117 ft | 548 kts | 73° |
| 2026-04-23 14:17 | 28.32426 | 115.16419 | 29137 ft | 549 kts | 74° |
| 2026-04-23 14:17 | 28.34468 | 115.24733 | 29131 ft | 548 kts | 73° |
| 2026-04-23 14:18 | 28.36495 | 115.33015 | 29128 ft | 548 kts | 74° |
| 2026-04-23 14:18 | 28.38526 | 115.41319 | 29132 ft | 549 kts | 74° |
| 2026-04-23 14:19 | 28.40555 | 115.49662 | 29138 ft | 548 kts | 74° |
| 2026-04-23 14:19 | 28.42573 | 115.57959 | 29140 ft | 548 kts | 74° |
| 2026-04-23 14:20 | 28.44601 | 115.66335 | 29143 ft | 548 kts | 74° |
| 2026-04-23 14:20 | 28.46596 | 115.74615 | 29140 ft | 548 kts | 75° |
| 2026-04-23 14:21 | 28.48600 | 115.82963 | 29145 ft | 548 kts | 75° |
| 2026-04-23 14:21 | 28.50604 | 115.91323 | 29155 ft | 548 kts | 75° |
| 2026-04-23 14:22 | 28.52588 | 115.99617 | 29157 ft | 548 kts | 75° |
| 2026-04-23 14:22 | 28.54585 | 116.07992 | 29154 ft | 548 kts | 75° |
| 2026-04-23 14:23 | 28.56577 | 116.16354 | 29142 ft | 548 kts | 75° |
| 2026-04-23 14:23 | 28.58557 | 116.24706 | 29137 ft | 548 kts | 75° |
| 2026-04-23 14:24 | 28.60523 | 116.33019 | 29134 ft | 549 kts | 75° |
| 2026-04-23 14:24 | 28.62503 | 116.41402 | 29132 ft | 550 kts | 75° |
| 2026-04-23 14:25 | 28.64472 | 116.49783 | 29139 ft | 550 kts | 75° |
| 2026-04-23 14:25 | 28.66446 | 116.58212 | 29129 ft | 549 kts | 75° |
| 2026-04-23 14:26 | 28.68407 | 116.66593 | 29119 ft | 551 kts | 76° |
| 2026-04-23 14:26 | 28.70352 | 116.74976 | 29130 ft | 552 kts | 76° |
| 2026-04-23 14:27 | 28.72307 | 116.83413 | 29118 ft | 551 kts | 75° |
| 2026-04-23 14:27 | 28.74266 | 116.91876 | 29125 ft | 552 kts | 75° |
| 2026-04-23 14:28 | 28.76207 | 117.00287 | 29130 ft | 552 kts | 75° |
| 2026-04-23 14:28 | 28.78157 | 117.08754 | 29121 ft | 553 kts | 75° |
| 2026-04-23 14:29 | 28.80097 | 117.17216 | 29124 ft | 552 kts | 75° |
| 2026-04-23 14:29 | 28.82034 | 117.25688 | 29129 ft | 553 kts | 75° |
| 2026-04-23 14:30 | 28.85040 | 117.33604 | 29116 ft | 545 kts | 50° |
| 2026-04-23 14:30 | 28.87476 | 117.36814 | 29129 ft | 535 kts | 37° |
| 2026-04-23 14:30 | 28.90255 | 117.39667 | 29136 ft | 532 kts | 33° |
| 2026-04-23 14:31 | 28.95874 | 117.45128 | 29131 ft | 532 kts | 33° |
| 2026-04-23 14:31 | 29.01473 | 117.50694 | 29130 ft | 533 kts | 34° |
| 2026-04-23 14:32 | 29.07009 | 117.56320 | 29132 ft | 533 kts | 34° |
| 2026-04-23 14:32 | 29.12525 | 117.61958 | 29135 ft | 533 kts | 34° |
| 2026-04-23 14:33 | 29.18020 | 117.67577 | 29133 ft | 532 kts | 35° |
| 2026-04-23 14:33 | 29.23524 | 117.73254 | 29123 ft | 531 kts | 36° |
| 2026-04-23 14:34 | 29.29030 | 117.78928 | 29129 ft | 532 kts | 36° |
| 2026-04-23 14:34 | 29.34528 | 117.84595 | 29164 ft | 530 kts | 36° |
| 2026-04-23 14:35 | 29.39994 | 117.90235 | 29124 ft | 529 kts | 36° |
| 2026-04-23 14:35 | 29.45471 | 117.95894 | 29146 ft | 530 kts | 36° |
| 2026-04-23 14:36 | 29.50931 | 118.01544 | 29131 ft | 529 kts | 36° |
| 2026-04-23 14:36 | 29.56393 | 118.07205 | 29147 ft | 529 kts | 36° |
| 2026-04-23 14:37 | 29.61815 | 118.12840 | 29138 ft | 528 kts | 36° |
| 2026-04-23 14:37 | 29.67279 | 118.18528 | 29140 ft | 527 kts | 36° |
| 2026-04-23 14:38 | 29.72216 | 118.24810 | 29116 ft | 540 kts | 60° |
| 2026-04-23 14:38 | 29.73460 | 118.28902 | 29138 ft | 540 kts | 81° |
| 2026-04-23 14:38 | 29.73588 | 118.33143 | 29135 ft | 533 kts | 99° |
| 2026-04-23 14:39 | 29.72601 | 118.41557 | 29137 ft | 532 kts | 103° |
| 2026-04-23 14:39 | 29.71621 | 118.50014 | 29142 ft | 533 kts | 101° |
| 2026-04-23 14:40 | 29.71208 | 118.54204 | 28922 ft | 534 kts | 100° |
| 2026-04-23 14:40 | 29.70817 | 118.58455 | 28687 ft | 531 kts | 100° |
| 2026-04-23 14:40 | 29.70441 | 118.62635 | 28386 ft | 529 kts | 100° |
| 2026-04-23 14:40 | 29.70058 | 118.66850 | 27925 ft | 525 kts | 101° |
| 2026-04-23 14:41 | 29.69682 | 118.70952 | 27307 ft | 523 kts | 101° |
| 2026-04-23 14:41 | 29.69305 | 118.75115 | 26560 ft | 523 kts | 100° |
| 2026-04-23 14:41 | 29.69213 | 118.79311 | 25694 ft | 531 kts | 85° |
| 2026-04-23 14:41 | 29.70125 | 118.83408 | 24854 ft | 532 kts | 68° |
| 2026-04-23 14:42 | 29.71635 | 118.87237 | 24198 ft | 528 kts | 62° |
| 2026-04-23 14:42 | 29.73259 | 118.91026 | 23499 ft | 526 kts | 62° |
| 2026-04-23 14:42 | 29.74817 | 118.94791 | 22804 ft | 524 kts | 64° |
| 2026-04-23 14:42 | 29.76286 | 118.98583 | 22089 ft | 522 kts | 65° |
| 2026-04-23 14:43 | 29.77697 | 119.02422 | 21357 ft | 519 kts | 66° |
| 2026-04-23 14:43 | 29.79062 | 119.06263 | 20599 ft | 515 kts | 67° |
| 2026-04-23 14:43 | 29.80372 | 119.10014 | 20008 ft | 507 kts | 66° |
| 2026-04-23 14:43 | 29.81668 | 119.13761 | 19424 ft | 499 kts | 67° |
| 2026-04-23 14:44 | 29.82942 | 119.17448 | 18857 ft | 490 kts | 67° |
| 2026-04-23 14:44 | 29.84174 | 119.21014 | 18303 ft | 482 kts | 67° |
| 2026-04-23 14:44 | 29.85408 | 119.24584 | 17749 ft | 474 kts | 67° |
| 2026-04-23 14:44 | 29.86619 | 119.28090 | 17195 ft | 465 kts | 67° |
| 2026-04-23 14:45 | 29.87803 | 119.31525 | 16632 ft | 458 kts | 66° |
| 2026-04-23 14:45 | 29.88959 | 119.34882 | 16029 ft | 452 kts | 66° |
| 2026-04-23 14:45 | 29.90107 | 119.38212 | 15437 ft | 445 kts | 67° |
| 2026-04-23 14:45 | 29.91242 | 119.41513 | 14832 ft | 439 kts | 66° |
| 2026-04-23 14:46 | 29.92348 | 119.44733 | 14248 ft | 433 kts | 66° |
| 2026-04-23 14:46 | 29.93443 | 119.47922 | 13665 ft | 426 kts | 66° |
| 2026-04-23 14:46 | 29.94528 | 119.51084 | 13086 ft | 419 kts | 66° |
| 2026-04-23 14:46 | 29.95581 | 119.54158 | 12489 ft | 414 kts | 66° |
| 2026-04-23 14:47 | 29.96642 | 119.57255 | 11896 ft | 408 kts | 67° |
| 2026-04-23 14:47 | 29.97670 | 119.60260 | 11325 ft | 401 kts | 67° |
| 2026-04-23 14:47 | 29.98679 | 119.63214 | 10864 ft | 392 kts | 67° |
| 2026-04-23 14:47 | 29.99664 | 119.66105 | 10446 ft | 382 kts | 68° |
| 2026-04-23 14:48 | 30.00612 | 119.68904 | 10247 ft | 366 kts | 68° |
| 2026-04-23 14:48 | 30.01506 | 119.71545 | 10140 ft | 349 kts | 67° |
| 2026-04-23 14:48 | 30.02367 | 119.74081 | 10014 ft | 334 kts | 67° |
| 2026-04-23 14:48 | 30.03210 | 119.76560 | 9676 ft | 327 kts | 66° |
| 2026-04-23 14:49 | 30.04161 | 119.78911 | 9382 ft | 318 kts | 62° |
| 2026-04-23 14:49 | 30.05165 | 119.81144 | 9101 ft | 311 kts | 61° |
| 2026-04-23 14:49 | 30.06161 | 119.83328 | 8740 ft | 306 kts | 61° |
| 2026-04-23 14:49 | 30.07149 | 119.85494 | 8400 ft | 301 kts | 61° |
| 2026-04-23 14:50 | 30.08101 | 119.87594 | 8113 ft | 294 kts | 61° |
| 2026-04-23 14:50 | 30.09048 | 119.89690 | 7770 ft | 290 kts | 62° |
| 2026-04-23 14:50 | 30.09964 | 119.91727 | 7442 ft | 285 kts | 62° |
| 2026-04-23 14:50 | 30.10873 | 119.93734 | 7118 ft | 280 kts | 60° |
| 2026-04-23 14:51 | 30.11773 | 119.95711 | 6739 ft | 278 kts | 61° |
| 2026-04-23 14:51 | 30.12661 | 119.97664 | 6401 ft | 274 kts | 61° |
| 2026-04-23 14:51 | 30.13537 | 119.99614 | 6093 ft | 268 kts | 62° |
| 2026-04-23 14:51 | 30.14363 | 120.01468 | 6026 ft | 253 kts | 62° |
| 2026-04-23 14:52 | 30.15134 | 120.03239 | 5977 ft | 241 kts | 66° |
| 2026-04-23 14:52 | 30.15320 | 120.05084 | 5893 ft | 232 kts | 104° |
| 2026-04-23 14:52 | 30.14481 | 120.06643 | 5618 ft | 237 kts | 140° |
| 2026-04-23 14:52 | 30.13007 | 120.07536 | 5301 ft | 238 kts | 154° |
| 2026-04-23 14:53 | 30.11536 | 120.08356 | 5025 ft | 235 kts | 143° |
| 2026-04-23 14:53 | 30.10545 | 120.09784 | 4705 ft | 226 kts | 102° |
| 2026-04-23 14:53 | 30.10611 | 120.11516 | 4431 ft | 217 kts | 64° |
| 2026-04-23 14:53 | 30.11343 | 120.13015 | 4201 ft | 213 kts | 60° |
| 2026-04-23 14:54 | 30.12062 | 120.14488 | 3981 ft | 209 kts | 61° |
| 2026-04-23 14:54 | 30.12768 | 120.15945 | 3946 ft | 206 kts | 60° |
| 2026-04-23 14:54 | 30.13454 | 120.17390 | 3929 ft | 206 kts | 61° |
| 2026-04-23 14:54 | 30.14123 | 120.18843 | 3928 ft | 203 kts | 61° |
| 2026-04-23 14:55 | 30.14755 | 120.20254 | 3881 ft | 191 kts | 60° |
| 2026-04-23 14:55 | 30.15357 | 120.21618 | 3638 ft | 190 kts | 62° |
| 2026-04-23 14:55 | 30.15951 | 120.22979 | 3377 ft | 189 kts | 61° |
| 2026-04-23 14:55 | 30.16539 | 120.24321 | 3135 ft | 188 kts | 61° |
| 2026-04-23 14:56 | 30.17129 | 120.25668 | 2885 ft | 187 kts | 61° |
| 2026-04-23 14:56 | 30.17713 | 120.27000 | 2635 ft | 186 kts | 61° |
| 2026-04-23 14:56 | 30.18293 | 120.28322 | 2396 ft | 184 kts | 61° |
| 2026-04-23 14:56 | 30.18848 | 120.29584 | 2221 ft | 169 kts | 61° |
| 2026-04-23 14:57 | 30.19361 | 120.30750 | 1960 ft | 159 kts | 61° |
| 2026-04-23 14:57 | 30.19849 | 120.31856 | 1725 ft | 150 kts | 60° |
| 2026-04-23 14:57 | 30.20307 | 120.32893 | 1511 ft | 141 kts | 60° |
| 2026-04-23 14:57 | 30.20743 | 120.33882 | 1358 ft | 135 kts | 60° |
| 2026-04-23 14:58 | 30.21162 | 120.34830 | 1178 ft | 132 kts | 59° |
| 2026-04-23 14:58 | 30.21584 | 120.35782 | 1008 ft | 131 kts | 60° |
| 2026-04-23 14:58 | 30.22007 | 120.36710 | 859 ft | 131 kts | 59° |
| 2026-04-23 14:58 | 30.22415 | 120.37643 | 687 ft | 131 kts | 62° |
| 2026-04-23 14:59 | 30.22833 | 120.38584 | 548 ft | 131 kts | 62° |
| 2026-04-23 14:59 | 30.23241 | 120.39523 | 361 ft | 131 kts | 60° |
| 2026-04-23 14:59 | 30.23653 | 120.40450 | 170 ft | 129 kts | 61° |
| 2026-04-23 14:59 | 30.24057 | 120.41363 | 43 ft | 125 kts | 62° |
| 2026-04-23 15:00 | 30.24392 | 120.42121 | 38 ft | 81 kts | 62° |
| 2026-04-23 15:00 | 30.24552 | 120.42525 | 38 ft | 27 kts | 81° |
| 2026-04-23 15:00 | 30.24557 | 120.42734 | 38 ft | 23 kts | 90° |
| 2026-04-23 15:00 | 30.24520 | 120.42790 | 38 ft | 10 kts | 175° |
| 2026-04-23 15:01 | 30.24455 | 120.42747 | 38 ft | 12 kts | 185° |
| 2026-04-23 15:01 | 30.24369 | 120.42790 | 38 ft | 14 kts | 153° |
| 2026-04-23 15:01 | 30.24296 | 120.42794 | 38 ft | 8 kts | 197° |
| 2026-04-23 15:01 | 30.24229 | 120.42819 | 38 ft | 12 kts | 152° |
| 2026-04-23 15:02 | 30.24151 | 120.42866 | 38 ft | 9 kts | 153° |
| 2026-04-23 15:02 | 30.24114 | 120.42873 | 38 ft | 6 kts | 222° |
| 2026-04-23 15:02 | 30.24095 | 120.42834 | 38 ft | 2 kts | 242° |
| 2026-04-23 15:02 | 30.24092 | 120.42828 | 38 ft | 0 kts | 242° |